Time;durP1;ratioP1;P1;durP2;ratioP2;P2;SDS_P1;SDS_P2;PMS_P1;PMS_P2;Temp;Humidity;BMP_temperature;BMP_pressure;BME280_temperature;BME280_humidity;BME280_pressure;Samples;Min_cycle;Max_cycle;Signal;HPM_P1;HPM_P2
2021/09/01 00:00:09;;;;;;;9.30;5.13;;;;;;;;;;2081944;28;20258;-51
2021/09/01 00:01:12;;;;;;;8.60;4.68;;;;;;;;;;2082068;28;20191;-51
2021/09/01 00:02:12;;;;;;;7.05;4.55;;;;;;;;;;2080929;28;20307;-50
2021/09/01 00:03:12;;;;;;;9.95;6.00;;;;;;;;;;2078978;28;20196;-49
2021/09/01 00:04:13;;;;;;;9.75;5.68;;;;;;;;;;2079868;28;20165;-52
2021/09/01 00:05:14;;;;;;;13.27;5.47;;;;;;;;;;2081973;28;20768;-51
2021/09/01 00:06:14;;;;;;;11.65;5.53;;;;;;;;;;2079177;28;20176;-47
2021/09/01 00:07:14;;;;;;;9.43;5.03;;;;;;;;;;2062090;28;20257;-52
2021/09/01 00:08:15;;;;;;;9.57;5.30;;;;;;;;;;2070404;28;20292;-50
2021/09/01 00:09:15;;;;;;;9.45;5.50;;;;;;;;;;2082269;28;20762;-55
2021/09/01 00:10:16;;;;;;;9.20;5.30;;;;;;;;;;2080439;28;20180;-53
2021/09/01 00:11:17;;;;;;;9.32;5.63;;;;;;;;;;2081731;28;20176;-52
2021/09/01 00:12:17;;;;;;;9.25;5.15;;;;;;;;;;2081559;28;20216;-51
2021/09/01 00:13:17;;;;;;;6.63;5.07;;;;;;;;;;2082390;28;20828;-50
2021/09/01 00:14:17;;;;;;;9.63;5.20;;;;;;;;;;2082736;28;20199;-49
2021/09/01 00:15:18;;;;;;;11.45;4.97;;;;;;;;;;2079542;28;20693;-51
2021/09/01 00:16:28;;;;;;;11.00;5.13;;;;;;;;;;2074537;28;20169;-53
2021/09/01 00:17:28;;;;;;;7.53;4.75;;;;;;;;;;2074221;28;20185;-51
2021/09/01 00:18:28;;;;;;;11.07;5.35;;;;;;;;;;2074161;28;20172;-50
2021/09/01 00:19:29;;;;;;;11.27;4.90;;;;;;;;;;2074276;28;20180;-49
2021/09/01 00:20:29;;;;;;;6.57;5.38;;;;;;;;;;2077828;28;20168;-50
2021/09/01 00:21:29;;;;;;;8.23;5.05;;;;;;;;;;2082307;28;20644;-50
2021/09/01 00:22:30;;;;;;;7.13;4.88;;;;;;;;;;2077835;28;20282;-50
2021/09/01 00:23:30;;;;;;;8.27;4.40;;;;;;;;;;2074088;28;20186;-49
2021/09/01 00:24:30;;;;;;;14.27;5.20;;;;;;;;;;2074485;28;20176;-52
2021/09/01 00:25:30;;;;;;;7.95;4.82;;;;;;;;;;2077090;28;20168;-49
2021/09/01 00:26:31;;;;;;;7.57;5.22;;;;;;;;;;2081979;28;20199;-49
2021/09/01 00:27:31;;;;;;;10.77;4.85;;;;;;;;;;2080369;28;20177;-53
2021/09/01 00:28:31;;;;;;;8.30;4.57;;;;;;;;;;2083701;28;20169;-52
2021/09/01 00:29:31;;;;;;;7.88;5.13;;;;;;;;;;2080445;28;20175;-52
2021/09/01 00:30:32;;;;;;;12.57;5.70;;;;;;;;;;2082306;28;20583;-54
2021/09/01 00:31:32;;;;;;;14.38;5.70;;;;;;;;;;2079948;28;20783;-51
2021/09/01 00:32:32;;;;;;;6.28;4.70;;;;;;;;;;2081636;28;20325;-51
2021/09/01 00:33:32;;;;;;;7.70;5.28;;;;;;;;;;2079871;28;20177;-49
2021/09/01 00:34:33;;;;;;;12.63;5.40;;;;;;;;;;2077634;28;20265;-51
2021/09/01 00:35:33;;;;;;;8.38;4.70;;;;;;;;;;2078738;28;20189;-50
2021/09/01 00:36:33;;;;;;;8.15;4.95;;;;;;;;;;2077274;28;20177;-53
2021/09/01 00:37:34;;;;;;;11.98;4.90;;;;;;;;;;2081597;28;20204;-50
2021/09/01 00:38:34;;;;;;;10.35;4.95;;;;;;;;;;2077867;28;20169;-54
2021/09/01 00:39:34;;;;;;;11.00;5.28;;;;;;;;;;2073577;28;20577;-52
2021/09/01 00:40:34;;;;;;;7.97;5.07;;;;;;;;;;2080420;28;20230;-52
2021/09/01 00:41:35;;;;;;;8.55;5.43;;;;;;;;;;2081738;28;20187;-53
2021/09/01 00:42:38;;;;;;;10.95;5.57;;;;;;;;;;2081685;28;20217;-53
2021/09/01 00:43:38;;;;;;;10.60;4.90;;;;;;;;;;2080866;28;20180;-54
2021/09/01 00:44:40;;;;;;;10.00;4.80;;;;;;;;;;2082222;28;20671;-50
2021/09/01 00:45:44;;;;;;;11.02;4.80;;;;;;;;;;2082220;28;20203;-54
2021/09/01 00:46:45;;;;;;;9.30;5.22;;;;;;;;;;2082149;28;20177;-53
2021/09/01 00:47:45;;;;;;;14.48;5.32;;;;;;;;;;2081657;28;20176;-49
2021/09/01 00:48:46;;;;;;;11.48;5.40;;;;;;;;;;2082693;28;20184;-51
2021/09/01 00:49:46;;;;;;;11.95;4.90;;;;;;;;;;2081583;28;20204;-53
2021/09/01 00:50:47;;;;;;;12.85;5.82;;;;;;;;;;2089152;28;20171;-52
2021/09/01 00:51:48;;;;;;;12.52;5.72;;;;;;;;;;2085598;28;20171;-50
2021/09/01 00:52:48;;;;;;;9.65;4.95;;;;;;;;;;2079264;28;20215;-53
2021/09/01 00:53:49;;;;;;;10.40;5.05;;;;;;;;;;2074615;28;20181;-53
2021/09/01 00:54:50;;;;;;;7.93;4.43;;;;;;;;;;2074608;28;20168;-51
2021/09/01 00:55:51;;;;;;;10.95;4.80;;;;;;;;;;2078947;28;20185;-53
2021/09/01 00:56:52;;;;;;;8.88;4.68;;;;;;;;;;2074692;28;20665;-53
2021/09/01 00:57:53;;;;;;;10.13;4.97;;;;;;;;;;2074509;28;20168;-51
2021/09/01 00:58:53;;;;;;;7.13;5.00;;;;;;;;;;2065915;28;20205;-50
2021/09/01 00:59:54;;;;;;;6.22;4.65;;;;;;;;;;2065082;28;20178;-49
2021/09/01 01:01:15;;;;;;;8.93;4.47;;;;;;;;;;2073586;28;20177;-48
2021/09/01 01:02:15;;;;;;;7.25;4.68;;;;;;;;;;2080677;28;20650;-49
2021/09/01 01:03:16;;;;;;;13.15;4.78;;;;;;;;;;2066380;28;20204;-50
2021/09/01 01:04:17;;;;;;;9.30;4.85;;;;;;;;;;2070372;28;20203;-52
2021/09/01 01:05:18;;;;;;;9.10;5.05;;;;;;;;;;2079728;28;20576;-52
2021/09/01 01:06:19;;;;;;;7.78;4.68;;;;;;;;;;2078090;28;20203;-50
2021/09/01 01:07:20;;;;;;;10.27;5.13;;;;;;;;;;2079504;28;20839;-54
2021/09/01 01:08:20;;;;;;;9.55;5.10;;;;;;;;;;2068132;28;20169;-52
2021/09/01 01:09:20;;;;;;;13.88;5.10;;;;;;;;;;2071599;28;20629;-51
2021/09/01 01:10:22;;;;;;;8.38;4.22;;;;;;;;;;2080259;28;20172;-49
2021/09/01 01:11:23;;;;;;;8.05;5.13;;;;;;;;;;2079609;28;20210;-47
2021/09/01 01:12:23;;;;;;;8.80;5.05;;;;;;;;;;2078729;28;20254;-50
2021/09/01 01:13:27;;;;;;;7.60;4.95;;;;;;;;;;2079390;28;20171;-51
2021/09/01 01:14:27;;;;;;;9.93;4.78;;;;;;;;;;2072021;28;20184;-52
2021/09/01 01:15:27;;;;;;;7.72;5.07;;;;;;;;;;2072327;28;20199;-51
2021/09/01 01:16:28;;;;;;;9.55;4.30;;;;;;;;;;2081729;28;20176;-54
2021/09/01 01:17:28;;;;;;;6.13;4.50;;;;;;;;;;2080638;28;20548;-52
2021/09/01 01:18:28;;;;;;;6.20;4.10;;;;;;;;;;2078651;28;20658;-51
2021/09/01 01:19:28;;;;;;;8.13;4.70;;;;;;;;;;2080684;28;20164;-52
2021/09/01 01:20:28;;;;;;;9.95;4.85;;;;;;;;;;2080051;28;20550;-53
2021/09/01 01:21:29;;;;;;;8.40;4.47;;;;;;;;;;2081220;28;20188;-53
2021/09/01 01:22:29;;;;;;;8.25;4.88;;;;;;;;;;2080877;28;20183;-49
2021/09/01 01:23:29;;;;;;;6.47;4.20;;;;;;;;;;2073850;28;20267;-50
2021/09/01 01:24:48;;;;;;;7.38;4.80;;;;;;;;;;2081336;28;20169;-50
2021/09/01 01:25:50;;;;;;;7.32;4.72;;;;;;;;;;2075431;28;20184;-53
2021/09/01 01:26:50;;;;;;;5.50;4.45;;;;;;;;;;2080918;28;20199;-53
2021/09/01 01:27:50;;;;;;;13.43;5.20;;;;;;;;;;2078317;28;20176;-51
2021/09/01 01:28:51;;;;;;;8.40;5.55;;;;;;;;;;2076600;28;20184;-52
2021/09/01 01:29:52;;;;;;;8.52;4.32;;;;;;;;;;2079528;28;20164;-56
2021/09/01 01:30:52;;;;;;;11.40;5.38;;;;;;;;;;2081535;28;20191;-51
2021/09/01 01:31:53;;;;;;;9.02;5.03;;;;;;;;;;2079462;28;20204;-55
2021/09/01 01:32:53;;;;;;;7.70;4.57;;;;;;;;;;2081219;28;20195;-55
2021/09/01 01:33:54;;;;;;;7.45;4.53;;;;;;;;;;2079953;28;20180;-53
2021/09/01 01:34:54;;;;;;;8.02;5.18;;;;;;;;;;2080569;28;20655;-47
2021/09/01 01:35:54;;;;;;;15.10;4.97;;;;;;;;;;2079977;28;20229;-53
2021/09/01 01:36:54;;;;;;;13.00;5.60;;;;;;;;;;2081425;28;20176;-50
2021/09/01 01:37:56;;;;;;;10.73;5.22;;;;;;;;;;2080626;28;20177;-50
2021/09/01 01:38:56;;;;;;;6.68;4.90;;;;;;;;;;2080273;28;20188;-52
2021/09/01 01:39:56;;;;;;;9.60;5.00;;;;;;;;;;2080999;28;20259;-49
2021/09/01 01:40:56;;;;;;;14.10;5.20;;;;;;;;;;2078545;28;20268;-50
2021/09/01 01:41:56;;;;;;;9.80;5.72;;;;;;;;;;2077061;28;20207;-49
2021/09/01 01:42:57;;;;;;;16.85;5.10;;;;;;;;;;2080787;28;20427;-48
2021/09/01 01:43:57;;;;;;;9.57;5.13;;;;;;;;;;2080592;28;20179;-54
2021/09/01 01:45:00;;;;;;;7.18;5.30;;;;;;;;;;2080456;28;20699;-49
2021/09/01 01:46:01;;;;;;;9.32;5.32;;;;;;;;;;2080900;28;20210;-50
2021/09/01 01:47:02;;;;;;;9.02;5.38;;;;;;;;;;2079724;28;20195;-49
2021/09/01 01:48:03;;;;;;;7.72;5.10;;;;;;;;;;2080734;28;20243;-49
2021/09/01 01:49:03;;;;;;;15.65;5.53;;;;;;;;;;2080408;28;20175;-49
2021/09/01 01:50:04;;;;;;;11.25;5.53;;;;;;;;;;2079794;28;20180;-50
2021/09/01 01:51:04;;;;;;;9.77;5.18;;;;;;;;;;2072757;28;20196;-53
2021/09/01 01:52:04;;;;;;;8.90;5.07;;;;;;;;;;2072558;28;20193;-50
2021/09/01 01:53:05;;;;;;;15.40;5.15;;;;;;;;;;2072735;28;20696;-49
2021/09/01 01:54:05;;;;;;;9.35;5.03;;;;;;;;;;2073099;28;20173;-49
2021/09/01 01:55:06;;;;;;;15.82;5.15;;;;;;;;;;2073361;28;20271;-50
2021/09/01 01:56:07;;;;;;;9.25;4.95;;;;;;;;;;2077596;28;20172;-51
2021/09/01 01:57:07;;;;;;;10.23;5.20;;;;;;;;;;2078594;28;20172;-49
2021/09/01 01:58:07;;;;;;;11.32;5.20;;;;;;;;;;2072964;28;20173;-50
2021/09/01 01:59:07;;;;;;;10.73;5.15;;;;;;;;;;2077151;28;20818;-49
2021/09/01 02:00:08;;;;;;;9.32;5.15;;;;;;;;;;2081415;28;20544;-54
2021/09/01 02:01:14;;;;;;;11.70;5.55;;;;;;;;;;2081429;28;20574;-53
2021/09/01 02:02:14;;;;;;;8.23;5.03;;;;;;;;;;2081528;28;20236;-52
2021/09/01 02:03:14;;;;;;;6.32;5.30;;;;;;;;;;2081163;28;20215;-49
2021/09/01 02:04:15;;;;;;;9.32;4.72;;;;;;;;;;2076139;28;20184;-52
2021/09/01 02:05:15;;;;;;;11.05;5.05;;;;;;;;;;2073232;28;20212;-52
2021/09/01 02:06:15;;;;;;;11.93;5.45;;;;;;;;;;2064633;28;20177;-51
2021/09/01 02:07:15;;;;;;;9.43;5.28;;;;;;;;;;2064497;28;20227;-50
2021/09/01 02:08:16;;;;;;;7.22;4.95;;;;;;;;;;2072934;28;20177;-48
2021/09/01 02:09:16;;;;;;;11.75;5.57;;;;;;;;;;2075090;28;20255;-50
2021/09/01 02:10:16;;;;;;;9.20;5.70;;;;;;;;;;2078413;28;20209;-51
2021/09/01 02:11:16;;;;;;;12.10;5.07;;;;;;;;;;2078070;28;20168;-50
2021/09/01 02:12:17;;;;;;;9.43;5.57;;;;;;;;;;2076116;28;20564;-49
2021/09/01 02:13:17;;;;;;;8.20;5.15;;;;;;;;;;2078328;28;20997;-54
2021/09/01 02:14:17;;;;;;;9.93;5.43;;;;;;;;;;2080561;28;20596;-52
2021/09/01 02:15:17;;;;;;;10.50;5.70;;;;;;;;;;2076244;28;20586;-55
2021/09/01 02:16:18;;;;;;;9.60;5.25;;;;;;;;;;2078825;28;20186;-55
2021/09/01 02:17:18;;;;;;;12.27;5.45;;;;;;;;;;2079639;28;20602;-52
2021/09/01 02:18:18;;;;;;;9.77;5.70;;;;;;;;;;2079665;28;20711;-53
2021/09/01 02:19:18;;;;;;;6.60;4.95;;;;;;;;;;2079813;28;20176;-52
2021/09/01 02:20:18;;;;;;;10.52;5.50;;;;;;;;;;2080384;28;20172;-52
2021/09/01 02:21:19;;;;;;;12.60;5.65;;;;;;;;;;2074818;28;20373;-50
2021/09/01 02:22:20;;;;;;;9.30;5.32;;;;;;;;;;2078790;28;20184;-50
2021/09/01 02:23:20;;;;;;;7.85;5.68;;;;;;;;;;2073737;28;20550;-55
2021/09/01 02:24:20;;;;;;;9.15;5.22;;;;;;;;;;2075600;28;20173;-53
2021/09/01 02:25:21;;;;;;;16.50;6.22;;;;;;;;;;2079300;28;20172;-51
2021/09/01 02:26:21;;;;;;;10.68;4.97;;;;;;;;;;2076598;28;20184;-50
2021/09/01 02:27:22;;;;;;;8.98;5.72;;;;;;;;;;2079109;28;20170;-47
2021/09/01 02:28:22;;;;;;;9.80;5.85;;;;;;;;;;2079175;28;20661;-53
2021/09/01 02:29:22;;;;;;;7.30;5.68;;;;;;;;;;2079792;28;20165;-53
2021/09/01 02:30:22;;;;;;;8.63;5.05;;;;;;;;;;2075732;28;20688;-53
2021/09/01 02:31:23;;;;;;;9.70;5.22;;;;;;;;;;2076994;28;20177;-51
2021/09/01 02:32:23;;;;;;;12.68;6.28;;;;;;;;;;2079821;28;20197;-52
2021/09/01 02:33:23;;;;;;;9.77;5.80;;;;;;;;;;2080381;28;20180;-49
2021/09/01 02:34:24;;;;;;;12.40;5.90;;;;;;;;;;2080164;28;20342;-49
2021/09/01 02:35:24;;;;;;;8.40;5.55;;;;;;;;;;2074308;28;20272;-48
2021/09/01 02:36:24;;;;;;;13.60;6.30;;;;;;;;;;2079018;28;20183;-52
2021/09/01 02:37:24;;;;;;;11.45;5.72;;;;;;;;;;2073885;28;20840;-49
2021/09/01 02:38:25;;;;;;;9.98;5.38;;;;;;;;;;2079189;28;20206;-55
2021/09/01 02:39:25;;;;;;;9.68;5.60;;;;;;;;;;2080271;28;20672;-54
2021/09/01 02:40:26;;;;;;;9.57;5.80;;;;;;;;;;2080506;28;20645;-52
2021/09/01 02:41:26;;;;;;;9.57;5.32;;;;;;;;;;2073554;28;20487;-49
2021/09/01 02:42:26;;;;;;;13.40;5.93;;;;;;;;;;2080183;28;20226;-49
2021/09/01 02:43:26;;;;;;;11.63;5.70;;;;;;;;;;2080316;28;20273;-50
2021/09/01 02:44:27;;;;;;;10.82;5.25;;;;;;;;;;2079768;28;20191;-51
2021/09/01 02:45:27;;;;;;;8.73;5.95;;;;;;;;;;2076026;28;20173;-50
2021/09/01 02:46:27;;;;;;;10.45;5.90;;;;;;;;;;2080818;28;20180;-53
2021/09/01 02:47:27;;;;;;;14.68;5.65;;;;;;;;;;2080671;28;20160;-53
2021/09/01 02:48:28;;;;;;;10.88;5.60;;;;;;;;;;2081194;28;20176;-53
2021/09/01 02:49:28;;;;;;;6.28;5.45;;;;;;;;;;2083013;28;20175;-48
2021/09/01 02:50:28;;;;;;;14.65;5.65;;;;;;;;;;2083209;28;20172;-52
2021/09/01 02:51:28;;;;;;;14.27;6.28;;;;;;;;;;2081763;28;20176;-54
2021/09/01 02:52:29;;;;;;;9.18;5.47;;;;;;;;;;2083132;28;20190;-52
2021/09/01 02:53:29;;;;;;;11.23;5.57;;;;;;;;;;2082702;28;20243;-53
2021/09/01 02:54:29;;;;;;;11.50;6.03;;;;;;;;;;2082099;28;20183;-50
2021/09/01 02:55:29;;;;;;;13.52;5.90;;;;;;;;;;2078348;28;20693;-54
2021/09/01 02:56:30;;;;;;;12.80;6.35;;;;;;;;;;2083188;28;20172;-51
2021/09/01 02:57:30;;;;;;;9.65;6.32;;;;;;;;;;2079279;28;20234;-54
2021/09/01 02:58:30;;;;;;;15.55;5.97;;;;;;;;;;2074570;28;20191;-54
2021/09/01 02:59:31;;;;;;;10.07;6.28;;;;;;;;;;2078201;28;20176;-50
2021/09/01 03:00:31;;;;;;;11.93;6.32;;;;;;;;;;2083867;28;20175;-51
2021/09/01 03:01:31;;;;;;;13.20;6.45;;;;;;;;;;2083694;28;20651;-51
2021/09/01 03:02:32;;;;;;;8.98;6.00;;;;;;;;;;2079184;28;20568;-50
2021/09/01 03:03:32;;;;;;;14.95;6.45;;;;;;;;;;2083295;28;20566;-51
2021/09/01 03:04:32;;;;;;;11.35;6.53;;;;;;;;;;2082765;28;20175;-55
2021/09/01 03:05:32;;;;;;;11.68;6.03;;;;;;;;;;2078421;28;20195;-52
2021/09/01 03:06:33;;;;;;;9.90;5.72;;;;;;;;;;2082963;28;20183;-55
2021/09/01 03:07:33;;;;;;;12.45;6.85;;;;;;;;;;2082370;28;20171;-53
2021/09/01 03:08:33;;;;;;;7.95;6.38;;;;;;;;;;2078413;28;20173;-52
2021/09/01 03:09:33;;;;;;;10.30;5.65;;;;;;;;;;2083946;28;20163;-51
2021/09/01 03:10:34;;;;;;;12.32;5.90;;;;;;;;;;2079116;28;20179;-50
2021/09/01 03:11:34;;;;;;;12.95;6.30;;;;;;;;;;2083619;28;20204;-48
2021/09/01 03:12:34;;;;;;;11.35;6.78;;;;;;;;;;2077814;28;20177;-53
2021/09/01 03:13:35;;;;;;;9.75;6.47;;;;;;;;;;2083153;28;20190;-50
2021/09/01 03:14:35;;;;;;;11.88;6.70;;;;;;;;;;2071090;28;20668;-53
2021/09/01 03:15:35;;;;;;;14.07;7.38;;;;;;;;;;2074346;28;20594;-54
2021/09/01 03:16:35;;;;;;;10.63;6.72;;;;;;;;;;2076998;28;20169;-55
2021/09/01 03:17:36;;;;;;;13.52;7.03;;;;;;;;;;2083743;28;20176;-53
2021/09/01 03:18:36;;;;;;;13.55;6.78;;;;;;;;;;2083406;28;20230;-55
2021/09/01 03:19:36;;;;;;;13.07;6.15;;;;;;;;;;2084089;28;20588;-49
2021/09/01 03:20:36;;;;;;;11.65;7.53;;;;;;;;;;2082530;28;20180;-53
2021/09/01 03:21:36;;;;;;;17.02;7.43;;;;;;;;;;2082373;28;20192;-53
2021/09/01 03:22:37;;;;;;;15.95;7.70;;;;;;;;;;2082901;28;20242;-52
2021/09/01 03:23:37;;;;;;;9.30;6.35;;;;;;;;;;2083942;28;20199;-53
2021/09/01 03:24:37;;;;;;;10.77;6.88;;;;;;;;;;2083783;28;20577;-50
2021/09/01 03:25:37;;;;;;;12.98;7.03;;;;;;;;;;2076666;28;20188;-54
2021/09/01 03:26:38;;;;;;;9.13;6.22;;;;;;;;;;2073177;28;20184;-55
2021/09/01 03:27:38;;;;;;;14.95;6.75;;;;;;;;;;2067901;28;20224;-53
2021/09/01 03:28:38;;;;;;;9.13;6.25;;;;;;;;;;2076850;28;20180;-50
2021/09/01 03:29:38;;;;;;;14.07;7.13;;;;;;;;;;2077889;28;20180;-52
2021/09/01 03:30:39;;;;;;;14.75;6.45;;;;;;;;;;2083770;28;20255;-53
2021/09/01 03:31:39;;;;;;;14.45;7.25;;;;;;;;;;2083413;28;20738;-49
2021/09/01 03:32:39;;;;;;;11.18;7.07;;;;;;;;;;2083165;28;20190;-52
2021/09/01 03:33:40;;;;;;;12.35;7.55;;;;;;;;;;2083975;28;20310;-51
2021/09/01 03:34:40;;;;;;;14.05;6.38;;;;;;;;;;2074565;28;20172;-49
2021/09/01 03:35:40;;;;;;;14.02;6.97;;;;;;;;;;2074970;28;20191;-51
2021/09/01 03:36:40;;;;;;;9.13;6.18;;;;;;;;;;2083375;28;20208;-51
2021/09/01 03:37:41;;;;;;;11.13;7.13;;;;;;;;;;2083088;28;20215;-52
2021/09/01 03:38:41;;;;;;;11.95;6.75;;;;;;;;;;2083173;28;20302;-51
2021/09/01 03:39:41;;;;;;;16.00;7.28;;;;;;;;;;2083755;28;20182;-50
2021/09/01 03:40:42;;;;;;;12.60;7.28;;;;;;;;;;2082356;28;20187;-50
2021/09/01 03:41:42;;;;;;;10.15;7.35;;;;;;;;;;2082692;28;20172;-48
2021/09/01 03:42:42;;;;;;;12.82;7.10;;;;;;;;;;2083676;28;20632;-50
2021/09/01 03:43:42;;;;;;;15.73;7.38;;;;;;;;;;2083884;28;20187;-52
2021/09/01 03:44:43;;;;;;;11.45;7.10;;;;;;;;;;2084148;28;20173;-52
2021/09/01 03:45:43;;;;;;;11.68;6.30;;;;;;;;;;2076960;28;20625;-52
2021/09/01 03:46:43;;;;;;;10.95;6.57;;;;;;;;;;2078114;28;20255;-49
2021/09/01 03:47:43;;;;;;;13.85;6.35;;;;;;;;;;2083749;28;20168;-49
2021/09/01 03:48:44;;;;;;;11.30;6.63;;;;;;;;;;2083266;28;20172;-53
2021/09/01 03:49:44;;;;;;;11.85;6.78;;;;;;;;;;2084078;28;20246;-51
2021/09/01 03:50:44;;;;;;;11.10;6.35;;;;;;;;;;2083085;28;20179;-51
2021/09/01 03:51:45;;;;;;;20.63;6.32;;;;;;;;;;2080053;28;20180;-52
2021/09/01 03:52:45;;;;;;;10.75;6.28;;;;;;;;;;2078601;28;20283;-49
2021/09/01 03:53:45;;;;;;;10.35;6.00;;;;;;;;;;2071104;28;20252;-52
2021/09/01 03:54:45;;;;;;;9.52;6.65;;;;;;;;;;2076496;28;20177;-52
2021/09/01 03:55:46;;;;;;;15.00;6.93;;;;;;;;;;2082107;28;20168;-52
2021/09/01 03:56:46;;;;;;;11.93;6.88;;;;;;;;;;2083000;28;20521;-49
2021/09/01 03:57:48;;;;;;;12.05;6.53;;;;;;;;;;2078694;28;20271;-50
2021/09/01 03:58:48;;;;;;;8.98;6.93;;;;;;;;;;2082636;28;20273;-47
2021/09/01 03:59:48;;;;;;;13.18;6.90;;;;;;;;;;2081667;28;20184;-50
2021/09/01 04:00:48;;;;;;;11.43;6.80;;;;;;;;;;2079595;28;20176;-51
2021/09/01 04:01:49;;;;;;;13.30;7.07;;;;;;;;;;2080689;28;20773;-52
2021/09/01 04:02:49;;;;;;;14.70;7.15;;;;;;;;;;2081630;28;20211;-51
2021/09/01 04:03:50;;;;;;;13.98;6.45;;;;;;;;;;2081682;28;20210;-53
2021/09/01 04:04:50;;;;;;;10.10;7.05;;;;;;;;;;2081727;28;20188;-52
2021/09/01 04:05:50;;;;;;;18.70;7.15;;;;;;;;;;2081612;28;20184;-49
2021/09/01 04:06:50;;;;;;;13.95;7.13;;;;;;;;;;2080865;28;20199;-49
2021/09/01 04:07:51;;;;;;;15.43;7.18;;;;;;;;;;2081169;28;20176;-50
2021/09/01 04:08:51;;;;;;;13.05;7.18;;;;;;;;;;2081184;28;20164;-51
2021/09/01 04:09:51;;;;;;;10.02;6.60;;;;;;;;;;2079487;28;20568;-53
2021/09/01 04:10:51;;;;;;;9.82;6.72;;;;;;;;;;2077579;28;20219;-51
2021/09/01 04:11:52;;;;;;;13.20;7.20;;;;;;;;;;2081094;28;20617;-52
2021/09/01 04:12:52;;;;;;;10.90;6.75;;;;;;;;;;2077675;28;20255;-51
2021/09/01 04:13:52;;;;;;;14.68;6.70;;;;;;;;;;2081882;28;20188;-49
2021/09/01 04:14:53;;;;;;;11.52;7.28;;;;;;;;;;2081358;28;20203;-54
2021/09/01 04:15:53;;;;;;;14.35;7.32;;;;;;;;;;2077357;28;20206;-53
2021/09/01 04:16:53;;;;;;;12.82;7.15;;;;;;;;;;2081739;28;20207;-52
2021/09/01 04:17:54;;;;;;;12.52;6.97;;;;;;;;;;2081322;28;20179;-47
2021/09/01 04:18:55;;;;;;;15.10;7.22;;;;;;;;;;2077143;28;20838;-52
2021/09/01 04:19:55;;;;;;;14.35;7.25;;;;;;;;;;2076785;28;20578;-53
2021/09/01 04:20:55;;;;;;;15.70;6.72;;;;;;;;;;2072259;28;20308;-55
2021/09/01 04:21:56;;;;;;;8.90;6.95;;;;;;;;;;2076182;28;20199;-52
2021/09/01 04:22:56;;;;;;;11.75;7.47;;;;;;;;;;2081959;28;20213;-49
2021/09/01 04:23:56;;;;;;;12.15;7.18;;;;;;;;;;2073284;28;20639;-48
2021/09/01 04:24:57;;;;;;;11.63;7.28;;;;;;;;;;2071627;28;20228;-48
2021/09/01 04:25:57;;;;;;;9.10;7.00;;;;;;;;;;2081672;28;20181;-51
2021/09/01 04:26:57;;;;;;;12.10;7.40;;;;;;;;;;2076797;28;20164;-52
2021/09/01 04:27:57;;;;;;;15.50;7.55;;;;;;;;;;2076638;28;20262;-52
2021/09/01 04:28:58;;;;;;;12.82;7.38;;;;;;;;;;2078843;28;20184;-51
2021/09/01 04:29:58;;;;;;;17.45;7.60;;;;;;;;;;2076554;28;20188;-54
2021/09/01 04:30:58;;;;;;;12.90;7.15;;;;;;;;;;2074070;28;20227;-50
2021/09/01 04:31:58;;;;;;;11.10;6.82;;;;;;;;;;2077277;28;20223;-54
2021/09/01 04:32:59;;;;;;;16.00;6.95;;;;;;;;;;2077848;28;20169;-50
2021/09/01 04:33:59;;;;;;;13.63;7.60;;;;;;;;;;2077089;28;20188;-53
2021/09/01 04:34:59;;;;;;;11.73;7.38;;;;;;;;;;2072682;28;20173;-51
2021/09/01 04:35:59;;;;;;;11.73;6.90;;;;;;;;;;2073102;28;20173;-51
2021/09/01 04:37:00;;;;;;;12.02;7.60;;;;;;;;;;2077254;28;20177;-52
2021/09/01 04:38:00;;;;;;;11.07;7.85;;;;;;;;;;2078018;28;20192;-55
2021/09/01 04:39:00;;;;;;;15.93;8.13;;;;;;;;;;2082009;28;20222;-54
2021/09/01 04:40:00;;;;;;;13.20;7.47;;;;;;;;;;2081254;28;20632;-53
2021/09/01 04:41:01;;;;;;;11.88;6.70;;;;;;;;;;2080956;28;20176;-52
2021/09/01 04:42:01;;;;;;;14.27;7.78;;;;;;;;;;2080352;28;20200;-52
2021/09/01 04:43:01;;;;;;;14.00;6.88;;;;;;;;;;2081968;28;20203;-51
2021/09/01 04:44:02;;;;;;;15.90;7.40;;;;;;;;;;2081268;28;20174;-52
2021/09/01 04:45:02;;;;;;;9.43;6.93;;;;;;;;;;2081435;28;20164;-52
2021/09/01 04:46:02;;;;;;;13.95;7.18;;;;;;;;;;2073190;28;20173;-50
2021/09/01 04:47:03;;;;;;;11.60;6.95;;;;;;;;;;2073394;28;20573;-51
2021/09/01 04:48:03;;;;;;;12.80;7.40;;;;;;;;;;2078448;28;20188;-52
2021/09/01 04:49:03;;;;;;;10.30;6.38;;;;;;;;;;2082121;28;20161;-52
2021/09/01 04:50:04;;;;;;;10.73;6.70;;;;;;;;;;2081461;28;20176;-50
2021/09/01 04:51:04;;;;;;;15.55;6.90;;;;;;;;;;2082548;28;20172;-50
2021/09/01 04:52:04;;;;;;;12.27;6.68;;;;;;;;;;2080199;28;20318;-51
2021/09/01 04:53:04;;;;;;;10.45;6.72;;;;;;;;;;2082031;28;20175;-52
2021/09/01 04:54:05;;;;;;;13.57;6.70;;;;;;;;;;2080532;28;20263;-51
2021/09/01 04:55:06;;;;;;;11.70;6.57;;;;;;;;;;2073883;28;20177;-51
2021/09/01 04:56:06;;;;;;;14.30;6.40;;;;;;;;;;2076226;28;20189;-52
2021/09/01 04:57:06;;;;;;;9.48;6.32;;;;;;;;;;2069106;28;20189;-51
2021/09/01 04:58:06;;;;;;;13.20;6.38;;;;;;;;;;2071540;28;20817;-51
2021/09/01 04:59:07;;;;;;;14.60;6.82;;;;;;;;;;2080733;28;20262;-54
2021/09/01 05:00:07;;;;;;;12.00;6.53;;;;;;;;;;2075710;28;20665;-51
2021/09/01 05:01:08;;;;;;;9.45;6.55;;;;;;;;;;2073145;28;20204;-53
2021/09/01 05:02:08;;;;;;;9.50;5.60;;;;;;;;;;2071251;28;20713;-53
2021/09/01 05:03:08;;;;;;;10.02;6.18;;;;;;;;;;2080407;28;20238;-49
2021/09/01 05:04:08;;;;;;;11.00;7.00;;;;;;;;;;2080913;28;20168;-51
2021/09/01 05:05:09;;;;;;;13.77;6.70;;;;;;;;;;2077187;28;20201;-54
2021/09/01 05:06:09;;;;;;;12.00;6.95;;;;;;;;;;2079893;28;20165;-48
2021/09/01 05:07:09;;;;;;;12.73;6.60;;;;;;;;;;2081942;28;20164;-50
2021/09/01 05:08:10;;;;;;;13.77;6.80;;;;;;;;;;2081505;28;20172;-55
2021/09/01 05:09:10;;;;;;;10.65;6.20;;;;;;;;;;2081955;28;20260;-52
2021/09/01 05:10:10;;;;;;;13.75;6.97;;;;;;;;;;2081607;28;20542;-51
2021/09/01 05:11:11;;;;;;;11.15;7.13;;;;;;;;;;2081466;28;20451;-48
2021/09/01 05:12:11;;;;;;;8.63;6.55;;;;;;;;;;2081618;28;20192;-49
2021/09/01 05:13:12;;;;;;;11.60;6.10;;;;;;;;;;2081837;28;20215;-50
2021/09/01 05:14:12;;;;;;;14.35;7.38;;;;;;;;;;2081912;28;20176;-48
2021/09/01 05:15:12;;;;;;;11.00;6.82;;;;;;;;;;2081856;28;20199;-54
2021/09/01 05:16:12;;;;;;;10.65;6.75;;;;;;;;;;2072950;28;20196;-52
2021/09/01 05:17:13;;;;;;;12.98;6.88;;;;;;;;;;2057465;28;20182;-51
2021/09/01 05:18:13;;;;;;;15.57;7.47;;;;;;;;;;2064991;28;20208;-52
2021/09/01 05:19:13;;;;;;;12.00;6.85;;;;;;;;;;2081376;28;20183;-52
2021/09/01 05:20:15;;;;;;;12.90;6.80;;;;;;;;;;2083960;28;20176;-50
2021/09/01 05:21:17;;;;;;;13.48;7.07;;;;;;;;;;2080734;28;20948;-54
2021/09/01 05:22:21;;;;;;;12.18;6.72;;;;;;;;;;2081192;28;20192;-49
2021/09/01 05:23:22;;;;;;;9.30;6.68;;;;;;;;;;2081506;28;20254;-49
2021/09/01 05:24:43;;;;;;;13.90;6.63;;;;;;;;;;2081821;28;20160;-52
2021/09/01 05:25:54;;;;;;;13.65;6.65;;;;;;;;;;2059204;28;20196;-53
2021/09/01 05:26:58;;;;;;;13.13;6.40;;;;;;;;;;2081553;28;20263;-63
2021/09/01 05:27:59;;;;;;;15.50;6.70;;;;;;;;;;2081506;28;20212;-49
2021/09/01 05:29:03;;;;;;;10.57;6.07;;;;;;;;;;2081872;28;20167;-52
2021/09/01 05:30:05;;;;;;;13.93;7.07;;;;;;;;;;2081893;28;20728;-51
2021/09/01 05:31:06;;;;;;;11.02;6.57;;;;;;;;;;2081734;28;20646;-52
2021/09/01 05:32:11;;;;;;;11.50;6.93;;;;;;;;;;2077501;28;20192;-51
2021/09/01 05:33:12;;;;;;;13.05;6.68;;;;;;;;;;2081608;28;20172;-53
2021/09/01 05:34:12;;;;;;;9.82;6.10;;;;;;;;;;2073650;28;20267;-53
2021/09/01 05:35:13;;;;;;;12.05;7.00;;;;;;;;;;2073723;28;20268;-53
2021/09/01 05:36:15;;;;;;;8.68;6.00;;;;;;;;;;2064897;28;20170;-48
2021/09/01 05:37:15;;;;;;;13.80;6.43;;;;;;;;;;2072879;28;20177;-46
2021/09/01 05:38:19;;;;;;;15.45;6.95;;;;;;;;;;2078904;28;20362;-54
2021/09/01 05:39:20;;;;;;;13.50;6.57;;;;;;;;;;2083154;28;20237;-50
2021/09/01 05:40:20;;;;;;;12.27;6.32;;;;;;;;;;2081510;28;20180;-55
2021/09/01 05:41:20;;;;;;;9.57;6.38;;;;;;;;;;2084905;28;20213;-50
2021/09/01 05:42:22;;;;;;;10.73;5.63;;;;;;;;;;2082084;28;20227;-50
2021/09/01 05:43:22;;;;;;;12.18;6.68;;;;;;;;;;2079721;28;20192;-53
2021/09/01 05:44:23;;;;;;;12.15;6.15;;;;;;;;;;2081543;28;20259;-52
2021/09/01 05:45:24;;;;;;;10.30;6.25;;;;;;;;;;2073409;28;20207;-52
2021/09/01 05:46:24;;;;;;;14.57;6.25;;;;;;;;;;2074350;28;20215;-55
2021/09/01 05:47:25;;;;;;;13.90;6.40;;;;;;;;;;2081596;28;20176;-56
2021/09/01 05:48:26;;;;;;;11.55;6.85;;;;;;;;;;2080091;28;20192;-55
2021/09/01 05:49:26;;;;;;;10.57;6.50;;;;;;;;;;2072806;28;20236;-50
2021/09/01 05:50:27;;;;;;;12.82;6.20;;;;;;;;;;2073941;28;20173;-56
2021/09/01 05:51:28;;;;;;;13.98;6.47;;;;;;;;;;2078677;28;20268;-51
2021/09/01 05:52:28;;;;;;;10.90;6.35;;;;;;;;;;2078478;28;20185;-53
2021/09/01 05:53:29;;;;;;;14.45;6.20;;;;;;;;;;2077819;28;20176;-58
2021/09/01 05:54:29;;;;;;;10.73;6.30;;;;;;;;;;2078843;28;20173;-58
2021/09/01 05:55:31;;;;;;;13.23;6.18;;;;;;;;;;2075524;28;20176;-51
2021/09/01 05:56:34;;;;;;;14.60;6.72;;;;;;;;;;2073027;28;20200;-56
2021/09/01 05:57:38;;;;;;;12.68;6.40;;;;;;;;;;2081143;28;20545;-54
2021/09/01 05:58:43;;;;;;;11.45;6.47;;;;;;;;;;2076950;28;20653;-51
2021/09/01 05:59:49;;;;;;;13.82;6.50;;;;;;;;;;2080285;28;20801;-52